Terminal Aerodrome Forecast
Issued by NWS

Home | Current Version | Previous Version | Text Only | Print | Product List | Glossary On
Versions: 1 2 3 4 5 6 7 8 9 10 11 12 13 14 15
785
FTAK31 PAJN 262330
TAFAKT
TAF
PAKT 262330Z 2700/2724 32010KT P6SM FEW250
     FM270800 35005KT P6SM FEW250
     FM271800 32008KT P6SM FEW250
      AMD LTD TO CLD VIS AND WIND 2706/2715=

USA.gov is the U.S. government's official web portal to all federal, state and local government web resources and services.